sensor_id;sensor_type;location;lat;lon;timestamp;pressure;altitude;pressure_sealevel;temperature;humidity
65019;BME280;66069;51.164;-114.452;2023-02-19T00:01:27;87419.16;;;17.91;44.42
65019;BME280;66069;51.164;-114.452;2023-02-19T00:03:59;87436.81;;;17.98;44.44
65019;BME280;66069;51.164;-114.452;2023-02-19T00:06:28;87430.44;;;17.95;44.45
65019;BME280;66069;51.164;-114.452;2023-02-19T00:08:55;87437.50;;;18.02;44.34
65019;BME280;66069;51.164;-114.452;2023-02-19T00:11:24;87432.00;;;17.93;44.46
65019;BME280;66069;51.164;-114.452;2023-02-19T00:13:53;87444.72;;;18.01;44.48
65019;BME280;66069;51.164;-114.452;2023-02-19T00:16:32;87416.31;;;17.82;44.42
65019;BME280;66069;51.164;-114.452;2023-02-19T00:19:00;87423.78;;;17.87;44.52
65019;BME280;66069;51.164;-114.452;2023-02-19T00:21:27;87420.41;;;17.87;44.45
65019;BME280;66069;51.164;-114.452;2023-02-19T00:23:59;87418.84;;;17.89;44.38
65019;BME280;66069;51.164;-114.452;2023-02-19T00:26:27;87419.59;;;17.90;44.39
65019;BME280;66069;51.164;-114.452;2023-02-19T00:28:54;87411.03;;;17.82;44.24
65019;BME280;66069;51.164;-114.452;2023-02-19T00:31:29;87412.59;;;17.80;44.16
65019;BME280;66069;51.164;-114.452;2023-02-19T00:33:58;87424.16;;;17.89;44.15
65019;BME280;66069;51.164;-114.452;2023-02-19T00:36:26;87414.09;;;17.81;44.14
65019;BME280;66069;51.164;-114.452;2023-02-19T00:38:53;87417.50;;;17.81;44.15
65019;BME280;66069;51.164;-114.452;2023-02-19T00:41:29;87436.66;;;17.89;44.05
65019;BME280;66069;51.164;-114.452;2023-02-19T00:44:07;87444.94;;;17.91;44.16
65019;BME280;66069;51.164;-114.452;2023-02-19T00:46:41;87445.38;;;17.89;44.14
65019;BME280;66069;51.164;-114.452;2023-02-19T00:49:15;87430.09;;;17.77;43.97
65019;BME280;66069;51.164;-114.452;2023-02-19T00:51:42;87427.44;;;17.77;43.98
65019;BME280;66069;51.164;-114.452;2023-02-19T00:54:09;87443.84;;;17.88;43.96
65019;BME280;66069;51.164;-114.452;2023-02-19T00:56:36;87438.06;;;17.77;44.11
65019;BME280;66069;51.164;-114.452;2023-02-19T00:59:02;87437.22;;;17.80;44.19
65019;BME280;66069;51.164;-114.452;2023-02-19T01:01:29;87428.84;;;17.82;43.89
65019;BME280;66069;51.164;-114.452;2023-02-19T01:03:55;87443.94;;;17.85;44.10
65019;BME280;66069;51.164;-114.452;2023-02-19T01:06:22;87439.44;;;17.82;44.04
65019;BME280;66069;51.164;-114.452;2023-02-19T01:08:49;87441.03;;;17.79;43.98
65019;BME280;66069;51.164;-114.452;2023-02-19T01:11:16;87440.19;;;17.82;44.19
65019;BME280;66069;51.164;-114.452;2023-02-19T01:13:43;87439.13;;;17.80;43.94
65019;BME280;66069;51.164;-114.452;2023-02-19T01:16:18;87436.47;;;17.80;44.19
65019;BME280;66069;51.164;-114.452;2023-02-19T01:18:45;87434.66;;;17.77;44.09
65019;BME280;66069;51.164;-114.452;2023-02-19T01:21:22;87439.78;;;17.84;44.09
65019;BME280;66069;51.164;-114.452;2023-02-19T01:23:50;87438.69;;;17.81;44.10
65019;BME280;66069;51.164;-114.452;2023-02-19T01:26:20;87440.72;;;17.77;44.35
65019;BME280;66069;51.164;-114.452;2023-02-19T01:28:47;87454.22;;;17.83;44.35
65019;BME280;66069;51.164;-114.452;2023-02-19T01:31:16;87450.31;;;17.87;44.57
65019;BME280;66069;51.164;-114.452;2023-02-19T01:33:52;87445.09;;;17.84;44.79
65019;BME280;66069;51.164;-114.452;2023-02-19T01:36:19;87447.41;;;17.82;44.79
65019;BME280;66069;51.164;-114.452;2023-02-19T01:38:49;87456.28;;;17.91;44.79
65019;BME280;66069;51.164;-114.452;2023-02-19T01:41:19;87442.84;;;17.82;45.07
65019;BME280;66069;51.164;-114.452;2023-02-19T01:46:41;87449.31;;;17.81;44.88
65019;BME280;66069;51.164;-114.452;2023-02-19T01:49:22;87432.34;;;17.79;45.00
65019;BME280;66069;51.164;-114.452;2023-02-19T01:51:59;87463.50;;;17.91;44.79
65019;BME280;66069;51.164;-114.452;2023-02-19T01:54:29;87433.56;;;17.74;44.66
65019;BME280;66069;51.164;-114.452;2023-02-19T01:56:58;87465.75;;;17.92;44.83
65019;BME280;66069;51.164;-114.452;2023-02-19T01:59:25;87468.06;;;17.90;44.73
65019;BME280;66069;51.164;-114.452;2023-02-19T02:01:51;87453.81;;;17.84;44.74
65019;BME280;66069;51.164;-114.452;2023-02-19T02:04:18;87456.53;;;17.81;44.58
65019;BME280;66069;51.164;-114.452;2023-02-19T02:06:51;87475.59;;;17.92;44.67
65019;BME280;66069;51.164;-114.452;2023-02-19T02:09:19;87471.19;;;17.85;44.61
65019;BME280;66069;51.164;-114.452;2023-02-19T02:12:04;87462.25;;;17.79;44.59
65019;BME280;66069;51.164;-114.452;2023-02-19T02:14:33;87468.22;;;17.83;44.43
65019;BME280;66069;51.164;-114.452;2023-02-19T02:17:23;87471.28;;;17.82;44.51
65019;BME280;66069;51.164;-114.452;2023-02-19T02:25:55;87485.88;;;17.90;44.61
65019;BME280;66069;51.164;-114.452;2023-02-19T02:28:42;87491.94;;;17.90;44.42
65019;BME280;66069;51.164;-114.452;2023-02-19T02:31:22;87481.31;;;17.90;44.36
65019;BME280;66069;51.164;-114.452;2023-02-19T02:34:11;87483.56;;;17.92;44.45
65019;BME280;66069;51.164;-114.452;2023-02-19T02:36:43;87481.81;;;17.85;44.39
65019;BME280;66069;51.164;-114.452;2023-02-19T02:39:13;87486.28;;;17.88;44.39
65019;BME280;66069;51.164;-114.452;2023-02-19T02:41:45;87483.63;;;17.88;44.38
65019;BME280;66069;51.164;-114.452;2023-02-19T02:44:35;87496.06;;;17.91;44.40
65019;BME280;66069;51.164;-114.452;2023-02-19T02:47:04;87483.38;;;17.83;44.43
65019;BME280;66069;51.164;-114.452;2023-02-19T02:49:52;87484.47;;;17.85;44.32
65019;BME280;66069;51.164;-114.452;2023-02-19T02:52:34;87475.19;;;17.77;44.37
65019;BME280;66069;51.164;-114.452;2023-02-19T02:55:20;87487.06;;;17.89;44.47
65019;BME280;66069;51.164;-114.452;2023-02-19T02:57:47;87481.81;;;17.85;44.40
65019;BME280;66069;51.164;-114.452;2023-02-19T03:00:13;87482.63;;;17.82;44.55
65019;BME280;66069;51.164;-114.452;2023-02-19T03:02:42;87500.63;;;17.91;44.43
65019;BME280;66069;51.164;-114.452;2023-02-19T03:05:22;87486.03;;;17.83;44.40
65019;BME280;66069;51.164;-114.452;2023-02-19T03:13:27;87495.50;;;17.84;44.57
65019;BME280;66069;51.164;-114.452;2023-02-19T03:16:23;87511.25;;;17.91;44.38
65019;BME280;66069;51.164;-114.452;2023-02-19T03:19:12;87496.56;;;17.86;44.46
65019;BME280;66069;51.164;-114.452;2023-02-19T03:24:48;87501.72;;;17.93;44.41
65019;BME280;66069;51.164;-114.452;2023-02-19T03:27:35;87481.56;;;17.80;44.48
65019;BME280;66069;51.164;-114.452;2023-02-19T03:30:09;87489.03;;;17.85;44.56
65019;BME280;66069;51.164;-114.452;2023-02-19T03:32:47;87487.28;;;17.78;44.40
65019;BME280;66069;51.164;-114.452;2023-02-19T03:35:20;87505.53;;;17.92;44.45
65019;BME280;66069;51.164;-114.452;2023-02-19T03:38:17;87502.13;;;17.92;44.51
65019;BME280;66069;51.164;-114.452;2023-02-19T03:49:09;87483.31;;;17.86;44.14
65019;BME280;66069;51.164;-114.452;2023-02-19T03:51:42;87474.59;;;17.86;44.32
65019;BME280;66069;51.164;-114.452;2023-02-19T03:54:34;87486.88;;;17.96;44.36
65019;BME280;66069;51.164;-114.452;2023-02-19T03:57:09;87481.31;;;17.90;44.47
65019;BME280;66069;51.164;-114.452;2023-02-19T03:59:57;87463.16;;;17.72;44.40
65019;BME280;66069;51.164;-114.452;2023-02-19T04:02:28;87492.59;;;17.94;44.36
65019;BME280;66069;51.164;-114.452;2023-02-19T04:07:27;87479.91;;;17.86;44.32
65019;BME280;66069;51.164;-114.452;2023-02-19T04:09:57;87467.13;;;17.81;44.43
65019;BME280;66069;51.164;-114.452;2023-02-19T04:12:24;87467.06;;;17.84;44.35
65019;BME280;66069;51.164;-114.452;2023-02-19T04:14:58;87476.75;;;17.91;44.23
65019;BME280;66069;51.164;-114.452;2023-02-19T04:17:36;87463.41;;;17.78;44.40
65019;BME280;66069;51.164;-114.452;2023-02-19T04:20:07;87463.66;;;17.84;44.36
65019;BME280;66069;51.164;-114.452;2023-02-19T04:22:34;87478.19;;;17.95;44.45
65019;BME280;66069;51.164;-114.452;2023-02-19T04:25:02;87477.50;;;17.91;44.37
65019;BME280;66069;51.164;-114.452;2023-02-19T04:27:28;87479.75;;;17.93;44.45
65019;BME280;66069;51.164;-114.452;2023-02-19T04:29:55;87458.69;;;17.86;44.56
65019;BME280;66069;51.164;-114.452;2023-02-19T04:32:21;87455.72;;;17.84;44.36
65019;BME280;66069;51.164;-114.452;2023-02-19T04:34:47;87465.41;;;17.90;44.39
65019;BME280;66069;51.164;-114.452;2023-02-19T04:37:14;87451.91;;;17.85;44.31
65019;BME280;66069;51.164;-114.452;2023-02-19T04:39:40;87460.59;;;17.85;44.52
65019;BME280;66069;51.164;-114.452;2023-02-19T04:42:06;87463.19;;;17.89;44.26
65019;BME280;66069;51.164;-114.452;2023-02-19T04:44:33;87439.44;;;17.82;44.16
65019;BME280;66069;51.164;-114.452;2023-02-19T04:46:59;87455.22;;;17.89;44.27
65019;BME280;66069;51.164;-114.452;2023-02-19T04:49:26;87450.06;;;17.82;44.32
65019;BME280;66069;51.164;-114.452;2023-02-19T04:51:52;87446.66;;;17.81;44.17
65019;BME280;66069;51.164;-114.452;2023-02-19T04:54:18;87449.66;;;17.83;44.30
65019;BME280;66069;51.164;-114.452;2023-02-19T04:56:45;87446.91;;;17.87;44.08
65019;BME280;66069;51.164;-114.452;2023-02-19T04:59:11;87453.72;;;17.88;44.09
65019;BME280;66069;51.164;-114.452;2023-02-19T05:01:38;87438.69;;;17.81;44.30
65019;BME280;66069;51.164;-114.452;2023-02-19T05:04:04;87428.59;;;17.76;44.23
65019;BME280;66069;51.164;-114.452;2023-02-19T05:06:30;87433.13;;;17.75;44.08
65019;BME280;66069;51.164;-114.452;2023-02-19T05:08:57;87433.81;;;17.80;43.94
65019;BME280;66069;51.164;-114.452;2023-02-19T05:11:23;87452.63;;;17.85;43.96
65019;BME280;66069;51.164;-114.452;2023-02-19T05:13:49;87437.16;;;17.84;44.10
65019;BME280;66069;51.164;-114.452;2023-02-19T05:16:16;87433.50;;;17.78;43.97
65019;BME280;66069;51.164;-114.452;2023-02-19T05:18:44;87434.13;;;17.82;44.02
65019;BME280;66069;51.164;-114.452;2023-02-19T05:21:11;87432.22;;;17.82;44.02
65019;BME280;66069;51.164;-114.452;2023-02-19T05:23:38;87407.13;;;17.70;43.94
65019;BME280;66069;51.164;-114.452;2023-02-19T05:26:15;87402.19;;;17.69;43.87
65019;BME280;66069;51.164;-114.452;2023-02-19T05:28:45;87395.09;;;17.66;43.96
65019;BME280;66069;51.164;-114.452;2023-02-19T05:31:13;87398.47;;;17.66;44.02
65019;BME280;66069;51.164;-114.452;2023-02-19T05:33:39;87412.78;;;17.72;43.98
65019;BME280;66069;51.164;-114.452;2023-02-19T05:36:10;87406.34;;;17.70;43.44
65019;BME280;66069;51.164;-114.452;2023-02-19T05:38:37;87398.06;;;17.68;43.80
65019;BME280;66069;51.164;-114.452;2023-02-19T05:41:12;87406.75;;;17.68;43.85
65019;BME280;66069;51.164;-114.452;2023-02-19T05:43:41;87412.78;;;17.72;43.94
65019;BME280;66069;51.164;-114.452;2023-02-19T05:46:09;87406.84;;;17.65;43.73
65019;BME280;66069;51.164;-114.452;2023-02-19T05:48:36;87418.53;;;17.67;43.64
65019;BME280;66069;51.164;-114.452;2023-02-19T05:51:08;87417.03;;;17.66;43.80
65019;BME280;66069;51.164;-114.452;2023-02-19T05:53:34;87404.94;;;17.65;43.64
65019;BME280;66069;51.164;-114.452;2023-02-19T05:56:01;87391.59;;;17.53;43.76
65019;BME280;66069;51.164;-114.452;2023-02-19T05:58:28;87393.00;;;17.57;43.73
65019;BME280;66069;51.164;-114.452;2023-02-19T06:00:55;87405.84;;;17.59;43.76
65019;BME280;66069;51.164;-114.452;2023-02-19T06:03:22;87396.31;;;17.61;43.69
65019;BME280;66069;51.164;-114.452;2023-02-19T06:05:48;87381.00;;;17.53;43.60
65019;BME280;66069;51.164;-114.452;2023-02-19T06:08:15;87383.66;;;17.53;43.57
65019;BME280;66069;51.164;-114.452;2023-02-19T06:10:42;87374.22;;;17.52;43.61
65019;BME280;66069;51.164;-114.452;2023-02-19T06:13:08;87381.81;;;17.49;43.51
65019;BME280;66069;51.164;-114.452;2023-02-19T06:15:36;87387.78;;;17.54;43.80
65019;BME280;66069;51.164;-114.452;2023-02-19T06:18:02;87382.91;;;17.52;43.58
65019;BME280;66069;51.164;-114.452;2023-02-19T06:20:29;87374.28;;;17.48;43.52
65019;BME280;66069;51.164;-114.452;2023-02-19T06:22:55;87361.94;;;17.41;43.64
65019;BME280;66069;51.164;-114.452;2023-02-19T06:25:22;87368.28;;;17.44;43.56
65019;BME280;66069;51.164;-114.452;2023-02-19T06:27:48;87382.91;;;17.52;43.47
65019;BME280;66069;51.164;-114.452;2023-02-19T06:30:14;87376.91;;;17.48;43.57
65019;BME280;66069;51.164;-114.452;2023-02-19T06:32:41;87342.94;;;17.27;43.55
65019;BME280;66069;51.164;-114.452;2023-02-19T06:35:07;87369.88;;;17.41;43.61
65019;BME280;66069;51.164;-114.452;2023-02-19T06:37:33;87351.47;;;17.34;43.50
65019;BME280;66069;51.164;-114.452;2023-02-19T06:39:59;87357.09;;;17.36;43.45
65019;BME280;66069;51.164;-114.452;2023-02-19T06:42:26;87367.28;;;17.38;43.67
65019;BME280;66069;51.164;-114.452;2023-02-19T06:44:52;87341.94;;;17.20;43.16
65019;BME280;66069;51.164;-114.452;2023-02-19T06:47:18;87363.91;;;17.37;43.49
65019;BME280;66069;51.164;-114.452;2023-02-19T06:49:44;87351.13;;;17.32;43.52
65019;BME280;66069;51.164;-114.452;2023-02-19T06:52:11;87347.16;;;17.24;43.42
65019;BME280;66069;51.164;-114.452;2023-02-19T06:54:37;87341.03;;;17.27;43.48
65019;BME280;66069;51.164;-114.452;2023-02-19T06:57:03;87355.19;;;17.37;43.38
65019;BME280;66069;51.164;-114.452;2023-02-19T06:59:30;87334.59;;;17.28;43.54
65019;BME280;66069;51.164;-114.452;2023-02-19T07:01:56;87340.53;;;17.32;43.39
65019;BME280;66069;51.164;-114.452;2023-02-19T07:04:22;87327.38;;;17.29;43.36
65019;BME280;66069;51.164;-114.452;2023-02-19T07:06:49;87332.59;;;17.32;43.38
65019;BME280;66069;51.164;-114.452;2023-02-19T07:09:15;87316.78;;;17.29;43.32
65019;BME280;66069;51.164;-114.452;2023-02-19T07:11:41;87311.56;;;17.25;43.35
65019;BME280;66069;51.164;-114.452;2023-02-19T07:14:14;87317.19;;;17.27;43.44
65019;BME280;66069;51.164;-114.452;2023-02-19T07:16:43;87310.81;;;17.25;43.33
65019;BME280;66069;51.164;-114.452;2023-02-19T07:19:09;87317.69;;;17.22;43.38
65019;BME280;66069;51.164;-114.452;2023-02-19T07:21:36;87310.22;;;17.17;43.41
65019;BME280;66069;51.164;-114.452;2023-02-19T07:24:04;87305.00;;;17.13;43.41
65019;BME280;66069;51.164;-114.452;2023-02-19T07:26:30;87319.91;;;17.23;43.35
65019;BME280;66069;51.164;-114.452;2023-02-19T07:28:56;87311.66;;;17.21;43.38
65019;BME280;66069;51.164;-114.452;2023-02-19T07:31:23;87310.97;;;17.17;43.20
65019;BME280;66069;51.164;-114.452;2023-02-19T07:33:49;87316.25;;;17.17;43.31
65019;BME280;66069;51.164;-114.452;2023-02-19T07:36:17;87306.41;;;17.18;43.25
65019;BME280;66069;51.164;-114.452;2023-02-19T07:38:44;87308.25;;;17.21;43.41
65019;BME280;66069;51.164;-114.452;2023-02-19T07:41:11;87281.66;;;17.08;43.34
65019;BME280;66069;51.164;-114.452;2023-02-19T07:43:38;87292.00;;;17.19;43.40
65019;BME280;66069;51.164;-114.452;2023-02-19T07:46:09;87277.38;;;17.14;43.17
65019;BME280;66069;51.164;-114.452;2023-02-19T07:48:37;87279.59;;;17.16;43.26
65019;BME280;66069;51.164;-114.452;2023-02-19T07:51:06;87276.22;;;17.15;43.21
65019;BME280;66069;51.164;-114.452;2023-02-19T07:53:34;87273.63;;;17.12;43.36
65019;BME280;66069;51.164;-114.452;2023-02-19T07:56:02;87256.56;;;17.13;43.47
65019;BME280;66069;51.164;-114.452;2023-02-19T07:58:29;87236.56;;;16.95;43.29
65019;BME280;66069;51.164;-114.452;2023-02-19T08:00:56;87238.50;;;17.08;43.29
65019;BME280;66069;51.164;-114.452;2023-02-19T08:03:22;87236.03;;;17.01;43.21
65019;BME280;66069;51.164;-114.452;2023-02-19T08:05:49;87240.94;;;17.02;42.94
65019;BME280;66069;51.164;-114.452;2023-02-19T08:08:16;87223.63;;;16.98;43.31
65019;BME280;66069;51.164;-114.452;2023-02-19T08:10:42;87215.38;;;16.95;43.22
65019;BME280;66069;51.164;-114.452;2023-02-19T08:13:29;87221.31;;;17.00;43.28
65019;BME280;66069;51.164;-114.452;2023-02-19T08:18:31;87216.84;;;16.97;43.54
65019;BME280;66069;51.164;-114.452;2023-02-19T08:20:58;87195.66;;;16.80;43.46
65019;BME280;66069;51.164;-114.452;2023-02-19T08:23:26;87209.13;;;16.86;43.30
65019;BME280;66069;51.164;-114.452;2023-02-19T08:25:56;87222.47;;;16.99;43.26
65019;BME280;66069;51.164;-114.452;2023-02-19T08:28:22;87181.66;;;16.80;43.18
65019;BME280;66069;51.164;-114.452;2023-02-19T08:30:49;87193.25;;;16.86;43.12
65019;BME280;66069;51.164;-114.452;2023-02-19T08:33:17;87200.63;;;16.94;43.22
65019;BME280;66069;51.164;-114.452;2023-02-19T08:35:44;87194.56;;;16.94;43.18
65019;BME280;66069;51.164;-114.452;2023-02-19T08:38:12;87191.94;;;16.94;43.28
65019;BME280;66069;51.164;-114.452;2023-02-19T08:40:41;87170.66;;;16.81;43.28
65019;BME280;66069;51.164;-114.452;2023-02-19T08:43:10;87177.03;;;16.84;43.20
65019;BME280;66069;51.164;-114.452;2023-02-19T08:45:38;87179.75;;;16.80;43.16
65019;BME280;66069;51.164;-114.452;2023-02-19T08:48:05;87161.31;;;16.77;42.91
65019;BME280;66069;51.164;-114.452;2023-02-19T08:50:32;87162.88;;;16.74;43.13
65019;BME280;66069;51.164;-114.452;2023-02-19T08:52:59;87176.22;;;16.87;43.28
65019;BME280;66069;51.164;-114.452;2023-02-19T08:55:26;87166.03;;;16.85;43.22
65019;BME280;66069;51.164;-114.452;2023-02-19T08:57:52;87152.47;;;16.83;43.24
65019;BME280;66069;51.164;-114.452;2023-02-19T09:00:19;87132.28;;;16.73;43.17
65019;BME280;66069;51.164;-114.452;2023-02-19T09:02:47;87131.13;;;16.74;43.20
65019;BME280;66069;51.164;-114.452;2023-02-19T09:05:14;87144.19;;;16.81;43.07
65019;BME280;66069;51.164;-114.452;2023-02-19T09:07:40;87134.19;;;16.73;43.22
65019;BME280;66069;51.164;-114.452;2023-02-19T09:10:11;87137.56;;;16.73;43.23
65019;BME280;66069;51.164;-114.452;2023-02-19T09:12:37;87150.31;;;16.78;43.15
65019;BME280;66069;51.164;-114.452;2023-02-19T09:15:05;87130.84;;;16.68;42.86
65019;BME280;66069;51.164;-114.452;2023-02-19T09:17:32;87130.50;;;16.66;43.09
65019;BME280;66069;51.164;-114.452;2023-02-19T09:19:58;87123.63;;;16.69;43.23
65019;BME280;66069;51.164;-114.452;2023-02-19T09:22:24;87140.22;;;16.73;43.24
65019;BME280;66069;51.164;-114.452;2023-02-19T09:24:51;87106.25;;;16.52;43.20
65019;BME280;66069;51.164;-114.452;2023-02-19T09:27:18;87135.38;;;16.68;42.95
65019;BME280;66069;51.164;-114.452;2023-02-19T09:29:45;87134.22;;;16.69;43.12
65019;BME280;66069;51.164;-114.452;2023-02-19T09:32:11;87121.47;;;16.64;43.21
65019;BME280;66069;51.164;-114.452;2023-02-19T09:34:38;87103.88;;;16.57;43.08
65019;BME280;66069;51.164;-114.452;2023-02-19T09:37:07;87098.41;;;16.48;42.98
65019;BME280;66069;51.164;-114.452;2023-02-19T09:39:34;87094.28;;;16.47;43.16
65019;BME280;66069;51.164;-114.452;2023-02-19T09:42:15;87106.19;;;16.55;43.07
65019;BME280;66069;51.164;-114.452;2023-02-19T09:44:47;87108.84;;;16.55;43.07
65019;BME280;66069;51.164;-114.452;2023-02-19T09:47:22;87099.16;;;16.49;43.08
65019;BME280;66069;51.164;-114.452;2023-02-19T09:49:51;87095.78;;;16.48;43.08
65019;BME280;66069;51.164;-114.452;2023-02-19T09:52:30;87078.66;;;16.53;43.21
65019;BME280;66069;51.164;-114.452;2023-02-19T09:55:04;87091.00;;;16.59;43.06
65019;BME280;66069;51.164;-114.452;2023-02-19T09:57:39;87071.88;;;16.52;43.05
65019;BME280;66069;51.164;-114.452;2023-02-19T10:00:23;87073.38;;;16.53;43.07
65019;BME280;66069;51.164;-114.452;2023-02-19T10:03:10;87064.34;;;16.50;43.16
65019;BME280;66069;51.164;-114.452;2023-02-19T10:05:39;87065.19;;;16.47;43.01
65019;BME280;66069;51.164;-114.452;2023-02-19T10:08:14;87070.72;;;16.53;43.07
65019;BME280;66069;51.164;-114.452;2023-02-19T10:10:43;87058.72;;;16.48;43.01
65019;BME280;66069;51.164;-114.452;2023-02-19T10:15:50;87059.06;;;16.50;43.06
65019;BME280;66069;51.164;-114.452;2023-02-19T10:18:21;87060.28;;;16.46;43.11
65019;BME280;66069;51.164;-114.452;2023-02-19T10:20:48;87050.78;;;16.48;43.14
65019;BME280;66069;51.164;-114.452;2023-02-19T10:23:16;87033.44;;;16.31;43.07
65019;BME280;66069;51.164;-114.452;2023-02-19T10:25:55;87036.75;;;16.35;43.19
65019;BME280;66069;51.164;-114.452;2023-02-19T10:28:26;87036.66;;;16.38;43.14
65019;BME280;66069;51.164;-114.452;2023-02-19T10:30:57;87038.06;;;16.43;42.94
65019;BME280;66069;51.164;-114.452;2023-02-19T10:33:25;87032.03;;;16.42;43.00
65019;BME280;66069;51.164;-114.452;2023-02-19T10:41:18;87007.97;;;16.37;43.08
65019;BME280;66069;51.164;-114.452;2023-02-19T10:46:34;86975.16;;;16.18;43.07
65019;BME280;66069;51.164;-114.452;2023-02-19T10:49:04;86985.44;;;16.16;43.09
65019;BME280;66069;51.164;-114.452;2023-02-19T10:51:35;86995.72;;;16.27;43.16
65019;BME280;66069;51.164;-114.452;2023-02-19T10:54:28;86995.97;;;16.32;43.03
65019;BME280;66069;51.164;-114.452;2023-02-19T10:57:31;86999.78;;;16.31;43.09
65019;BME280;66069;51.164;-114.452;2023-02-19T11:00:02;86995.66;;;16.30;43.05
65019;BME280;66069;51.164;-114.452;2023-02-19T11:02:44;86977.88;;;16.14;43.15
65019;BME280;66069;51.164;-114.452;2023-02-19T11:07:44;86980.03;;;16.20;43.04
65019;BME280;66069;51.164;-114.452;2023-02-19T11:10:38;86993.09;;;16.27;42.99
65019;BME280;66069;51.164;-114.452;2023-02-19T11:13:13;86986.06;;;16.20;42.92
65019;BME280;66069;51.164;-114.452;2023-02-19T11:15:42;86978.66;;;16.15;43.10
65019;BME280;66069;51.164;-114.452;2023-02-19T11:20:59;86971.53;;;16.12;43.18
65019;BME280;66069;51.164;-114.452;2023-02-19T11:23:31;86994.34;;;16.22;43.00
65019;BME280;66069;51.164;-114.452;2023-02-19T11:26:12;86995.50;;;16.21;43.04
65019;BME280;66069;51.164;-114.452;2023-02-19T11:28:42;86975.66;;;16.13;43.06
65019;BME280;66069;51.164;-114.452;2023-02-19T11:31:30;86980.03;;;16.20;43.10
65019;BME280;66069;51.164;-114.452;2023-02-19T11:34:00;86976.31;;;16.17;43.03
65019;BME280;66069;51.164;-114.452;2023-02-19T11:39:01;86954.91;;;16.11;43.12
65019;BME280;66069;51.164;-114.452;2023-02-19T11:56:09;86926.66;;;16.08;43.08
65019;BME280;66069;51.164;-114.452;2023-02-19T12:01:36;86921.78;;;16.07;43.08
65019;BME280;66069;51.164;-114.452;2023-02-19T12:15:38;86889.56;;;15.96;42.95
65019;BME280;66069;51.164;-114.452;2023-02-19T12:29:38;86890.34;;;15.96;42.95
65019;BME280;66069;51.164;-114.452;2023-02-19T12:32:31;86887.09;;;15.88;42.92
65019;BME280;66069;51.164;-114.452;2023-02-19T12:43:24;86875.78;;;15.88;42.91
65019;BME280;66069;51.164;-114.452;2023-02-19T12:46:00;86874.22;;;15.91;43.04
65019;BME280;66069;51.164;-114.452;2023-02-19T12:51:26;86866.13;;;15.81;43.09
65019;BME280;66069;51.164;-114.452;2023-02-19T12:56:47;86867.28;;;15.80;43.17
65019;BME280;66069;51.164;-114.452;2023-02-19T12:59:35;86868.78;;;15.81;43.06
65019;BME280;66069;51.164;-114.452;2023-02-19T13:08:03;86873.72;;;15.96;43.33
65019;BME280;66069;51.164;-114.452;2023-02-19T13:11:05;86874.78;;;15.98;43.18
65019;BME280;66069;51.164;-114.452;2023-02-19T13:16:25;86865.19;;;16.04;43.45
65019;BME280;66069;51.164;-114.452;2023-02-19T13:19:00;86859.56;;;16.02;43.69
65019;BME280;66069;51.164;-114.452;2023-02-19T13:21:32;86856.09;;;16.05;43.91
65019;BME280;66069;51.164;-114.452;2023-02-19T13:24:34;86863.03;;;16.15;43.93
65019;BME280;66069;51.164;-114.452;2023-02-19T13:30:31;86840.06;;;16.12;44.18
65019;BME280;66069;51.164;-114.452;2023-02-19T13:33:05;86850.59;;;16.29;44.17
65019;BME280;66069;51.164;-114.452;2023-02-19T13:38:26;86824.25;;;16.25;44.41
65019;BME280;66069;51.164;-114.452;2023-02-19T13:40:55;86827.03;;;16.34;44.51
65019;BME280;66069;51.164;-114.452;2023-02-19T13:43:33;86809.25;;;16.35;44.56
65019;BME280;66069;51.164;-114.452;2023-02-19T13:46:09;86829.50;;;16.54;44.72
65019;BME280;66069;51.164;-114.452;2023-02-19T13:48:39;86812.75;;;16.45;44.81
65019;BME280;66069;51.164;-114.452;2023-02-19T14:14:36;86817.97;;;17.03;44.82
65019;BME280;66069;51.164;-114.452;2023-02-19T14:17:23;86822.31;;;17.09;45.07
65019;BME280;66069;51.164;-114.452;2023-02-19T14:30:32;86764.88;;;17.19;44.57
65019;BME280;66069;51.164;-114.452;2023-02-19T14:33:01;86791.38;;;17.32;44.95
65019;BME280;66069;51.164;-114.452;2023-02-19T14:35:39;86759.69;;;17.28;44.98
65019;BME280;66069;51.164;-114.452;2023-02-19T14:38:14;86752.06;;;17.30;44.99
65019;BME280;66069;51.164;-114.452;2023-02-19T14:40:45;86765.59;;;17.32;45.19
65019;BME280;66069;51.164;-114.452;2023-02-19T14:43:16;86732.56;;;17.24;44.88
65019;BME280;66069;51.164;-114.452;2023-02-19T14:45:57;86751.19;;;17.46;44.86
65019;BME280;66069;51.164;-114.452;2023-02-19T14:48:25;86759.44;;;17.48;44.86
65019;BME280;66069;51.164;-114.452;2023-02-19T14:50:58;86737.38;;;17.51;44.81
65019;BME280;66069;51.164;-114.452;2023-02-19T14:53:28;86715.19;;;17.36;44.91
65019;BME280;66069;51.164;-114.452;2023-02-19T14:55:55;86739.94;;;17.55;44.77
65019;BME280;66069;51.164;-114.452;2023-02-19T14:58:29;86715.69;;;17.43;44.92
65019;BME280;66069;51.164;-114.452;2023-02-19T15:00:56;86720.94;;;17.56;44.72
65019;BME280;66069;51.164;-114.452;2023-02-19T15:03:34;86707.50;;;17.50;44.94
65019;BME280;66069;51.164;-114.452;2023-02-19T15:06:12;86696.69;;;17.45;44.46
65019;BME280;66069;51.164;-114.452;2023-02-19T15:08:58;86720.31;;;17.65;44.63
65019;BME280;66069;51.164;-114.452;2023-02-19T15:11:28;86701.13;;;17.61;44.58
65019;BME280;66069;51.164;-114.452;2023-02-19T15:14:02;86712.66;;;17.67;44.71
65019;BME280;66069;51.164;-114.452;2023-02-19T15:16:31;86720.16;;;17.68;44.61
65019;BME280;66069;51.164;-114.452;2023-02-19T15:19:00;86712.66;;;17.67;44.34
65019;BME280;66069;51.164;-114.452;2023-02-19T15:21:31;86691.16;;;17.65;44.45
65019;BME280;66069;51.164;-114.452;2023-02-19T15:24:00;86686.25;;;17.63;44.32